Time;durP1;ratioP1;P1;durP2;ratioP2;P2;SDS_P1;SDS_P2;PMS_P1;PMS_P2;Temp;Humidity;BMP_temperature;BMP_pressure;BME280_temperature;BME280_humidity;BME280_pressure;Samples;Min_cycle;Max_cycle;Signal;HPM_P1;HPM_P2
2021/01/12 00:00:38;;;;;;;5.65;3.47;;;6.50;92.70;;;;;;5064837;28;20036;-78
2021/01/12 00:03:07;;;;;;;4.18;2.92;;;6.60;92.70;;;;;;5080551;28;20481;-80
2021/01/12 00:05:33;;;;;;;5.22;3.05;;;6.50;92.60;;;;;;5099068;28;20032;-79
2021/01/12 00:07:59;;;;;;;5.90;3.15;;;6.60;92.60;;;;;;5063706;28;20123;-79
2021/01/12 00:10:25;;;;;;;4.47;2.83;;;6.50;92.60;;;;;;5098083;28;20115;-77
2021/01/12 00:12:52;;;;;;;5.35;2.97;;;6.70;92.60;;;;;;5077751;28;20054;-77
2021/01/12 00:15:18;;;;;;;5.03;3.05;;;6.70;92.60;;;;;;5076619;28;20509;-76
2021/01/12 00:17:44;;;;;;;4.28;2.60;;;6.70;92.70;;;;;;5095611;28;20126;-76
2021/01/12 00:20:11;;;;;;;4.32;2.70;;;6.70;92.60;;;;;;5095690;28;20126;-77
2021/01/12 00:22:38;;;;;;;7.78;4.40;;;6.80;92.70;;;;;;5076578;28;20444;-78
2021/01/12 00:25:06;;;;;;;6.90;4.35;;;6.70;92.70;;;;;;5095418;28;20404;-76
2021/01/12 00:27:37;;;;;;;8.43;4.45;;;6.70;92.60;;;;;;5095158;28;20067;-78
2021/01/12 00:30:16;;;;;;;18.15;9.50;;;6.80;92.70;;;;;;5042727;28;20047;-77
2021/01/12 00:32:44;;;;;;;19.15;9.30;;;6.80;92.70;;;;;;5060813;28;20097;-79
2021/01/12 00:35:11;;;;;;;16.20;7.15;;;6.70;92.70;;;;;;5060376;28;20036;-77
2021/01/12 00:37:36;;;;;;;11.30;6.03;;;6.80;92.80;;;;;;5096064;28;20036;-78
2021/01/12 00:40:03;;;;;;;11.45;5.78;;;6.80;92.80;;;;;;5076434;28;20555;-78
2021/01/12 00:42:29;;;;;;;9.30;5.78;;;6.70;92.80;;;;;;5076575;28;20032;-78
2021/01/12 00:44:55;;;;;;;7.45;4.80;;;6.80;92.80;;;;;;5060720;28;20028;-76
2021/01/12 00:47:23;;;;;;;7.25;4.90;;;6.80;92.80;;;;;;5094908;28;20379;-78
2021/01/12 00:49:49;;;;;;;6.97;4.50;;;6.80;92.90;;;;;;5076775;28;20052;-77
2021/01/12 00:55:06;;;;;;;5.55;3.38;;;6.80;92.90;;;;;;5034378;28;20600;-76
2021/01/12 00:57:32;;;;;;;6.07;3.58;;;6.80;92.90;;;;;;5035380;28;20156;-77
2021/01/12 00:59:57;;;;;;;7.32;4.70;;;6.80;92.90;;;;;;5039848;28;20072;-77
2021/01/12 01:02:23;;;;;;;6.15;3.95;;;6.80;92.90;;;;;;5036952;28;20049;-75
2021/01/12 01:04:49;;;;;;;5.93;3.90;;;6.80;93.00;;;;;;5051655;28;20052;-76
2021/01/12 01:07:14;;;;;;;6.22;3.88;;;6.80;93.00;;;;;;5047640;28;20021;-78
2021/01/12 01:09:40;;;;;;;5.65;3.60;;;6.80;93.00;;;;;;5056109;28;20049;-77
2021/01/12 01:12:06;;;;;;;5.85;3.65;;;6.80;93.00;;;;;;5064081;28;20041;-79
2021/01/12 01:14:32;;;;;;;5.97;4.03;;;6.80;93.00;;;;;;5042124;28;20395;-78
2021/01/12 01:16:57;;;;;;;6.82;4.22;;;6.80;93.00;;;;;;5056210;28;20055;-77
2021/01/12 01:19:27;;;;;;;5.43;3.65;;;6.70;93.00;;;;;;5069171;28;20067;-79
2021/01/12 01:21:55;;;;;;;6.20;3.88;;;6.80;93.10;;;;;;5091178;28;20861;-79
2021/01/12 01:24:21;;;;;;;6.25;3.80;;;6.80;93.10;;;;;;5088058;28;20049;-77
2021/01/12 01:26:47;;;;;;;4.80;3.20;;;6.80;93.10;;;;;;5091425;28;20047;-77
2021/01/12 01:29:13;;;;;;;6.68;3.50;;;6.80;93.10;;;;;;5108842;28;20031;-77
2021/01/12 01:31:39;;;;;;;5.40;3.58;;;6.80;93.10;;;;;;5089521;28;20486;-78
2021/01/12 01:34:05;;;;;;;5.85;3.72;;;6.90;93.10;;;;;;5070002;28;20044;-78
2021/01/12 01:36:31;;;;;;;5.65;3.20;;;6.80;93.10;;;;;;5069931;28;20088;-78
2021/01/12 01:38:59;;;;;;;5.93;3.38;;;6.90;93.20;;;;;;5089653;28;20131;-78
2021/01/12 01:41:25;;;;;;;4.78;3.08;;;6.80;93.10;;;;;;5088489;28;20055;-77
2021/01/12 01:43:51;;;;;;;5.18;3.10;;;6.80;93.20;;;;;;5103013;28;20056;-80
2021/01/12 01:46:17;;;;;;;4.30;2.88;;;6.70;93.10;;;;;;5058929;28;20052;-78
2021/01/12 01:48:45;;;;;;;4.95;3.45;;;6.80;93.20;;;;;;5063302;28;20049;-77
2021/01/12 01:51:11;;;;;;;4.20;2.72;;;6.80;93.20;;;;;;5059857;28;20049;-77
2021/01/12 01:53:37;;;;;;;5.30;3.38;;;6.80;93.20;;;;;;5067289;28;20033;-78
2021/01/12 01:56:06;;;;;;;4.88;2.67;;;6.80;93.20;;;;;;5044048;28;20060;-79
2021/01/12 01:58:41;;;;;;;4.32;2.70;;;6.90;93.20;;;;;;5024471;28;20053;-81
2021/01/12 02:01:19;;;;;;;5.15;2.58;;;6.80;93.20;;;;;;5021518;28;20041;-79
2021/01/12 02:03:58;;;;;;;3.45;2.47;;;6.80;93.20;;;;;;5015780;28;20105;-78
2021/01/12 02:06:32;;;;;;;4.78;2.17;;;6.80;93.20;;;;;;5030400;28;20069;-77
2021/01/12 02:09:17;;;;;;;5.32;2.42;;;6.90;93.30;;;;;;5030749;28;20549;-77
2021/01/12 02:11:49;;;;;;;4.10;2.65;;;6.80;93.30;;;;;;5013680;28;20141;-77
2021/01/12 02:14:18;;;;;;;4.90;2.50;;;6.90;93.50;;;;;;4983961;28;20057;-77
2021/01/12 02:16:47;;;;;;;4.47;2.75;;;6.80;93.20;;;;;;5021167;28;20048;-77
2021/01/12 02:19:18;;;;;;;4.75;2.92;;;6.80;93.20;;;;;;5050308;28;20080;-77
2021/01/12 02:21:51;;;;;;;4.95;3.10;;;6.90;93.30;;;;;;5052407;28;20188;-79
2021/01/12 02:24:18;;;;;;;5.15;3.00;;;6.90;93.20;;;;;;4974772;28;20050;-81
2021/01/12 02:26:44;;;;;;;4.47;2.67;;;6.90;93.20;;;;;;4988957;28;20041;-81
2021/01/12 02:29:10;;;;;;;5.30;2.80;;;6.90;93.30;;;;;;5020667;28;20052;-79
2021/01/12 02:31:39;;;;;;;4.70;2.50;;;6.90;93.30;;;;;;5011345;28;20057;-81
2021/01/12 02:34:15;;;;;;;3.72;2.53;;;6.90;93.30;;;;;;5005837;28;20072;-81
2021/01/12 02:36:41;;;;;;;3.45;2.28;;;7.00;93.30;;;;;;5003677;28;20042;-81
2021/01/12 02:39:11;;;;;;;3.78;2.40;;;6.90;93.30;;;;;;4950654;28;20043;-81
2021/01/12 02:41:37;;;;;;;3.70;2.50;;;7.00;93.30;;;;;;4985115;28;20051;-81
2021/01/12 02:44:03;;;;;;;4.97;2.67;;;7.00;93.30;;;;;;4969510;28;20073;-79
2021/01/12 02:46:30;;;;;;;3.75;2.20;;;7.00;93.30;;;;;;4952227;28;20042;-81
2021/01/12 02:48:56;;;;;;;3.60;1.85;;;7.10;93.30;;;;;;4972339;28;20039;-83
2021/01/12 02:51:22;;;;;;;3.35;1.90;;;7.00;93.30;;;;;;4960032;28;21290;-81
2021/01/12 02:53:47;;;;;;;4.80;2.50;;;7.10;93.30;;;;;;4984339;28;20118;-79
2021/01/12 02:56:13;;;;;;;4.15;2.30;;;7.10;93.40;;;;;;5004951;28;20054;-80
2021/01/12 02:58:39;;;;;;;5.90;2.97;;;7.10;93.30;;;;;;5022892;28;20152;-81
2021/01/12 03:01:05;;;;;;;6.43;2.70;;;7.20;93.30;;;;;;5027926;28;20086;-79
2021/01/12 03:03:30;;;;;;;3.75;2.28;;;7.20;93.30;;;;;;5008600;28;20142;-80
2021/01/12 03:05:56;;;;;;;5.07;2.13;;;7.20;93.30;;;;;;5045465;28;20053;-80
2021/01/12 03:08:22;;;;;;;4.68;2.50;;;7.20;93.30;;;;;;5048184;28;20041;-79
2021/01/12 03:10:48;;;;;;;3.42;1.85;;;7.30;93.30;;;;;;5098992;28;20036;-79
2021/01/12 03:13:14;;;;;;;4.03;2.15;;;7.30;93.30;;;;;;5106648;28;20040;-79
2021/01/12 03:15:40;;;;;;;4.00;2.40;;;7.30;93.30;;;;;;5102461;28;20056;-80
2021/01/12 03:18:06;;;;;;;2.92;1.80;;;7.30;93.30;;;;;;5107935;28;20047;-80
2021/01/12 03:20:32;;;;;;;3.88;2.30;;;7.30;93.30;;;;;;5086646;28;20048;-80
2021/01/12 03:22:59;;;;;;;3.63;2.10;;;7.40;93.30;;;;;;5106990;28;20040;-80
2021/01/12 03:25:24;;;;;;;4.75;2.35;;;7.40;93.40;;;;;;5089592;28;20477;-81
2021/01/12 03:27:50;;;;;;;3.17;2.03;;;7.40;93.40;;;;;;5069766;28;20032;-77
2021/01/12 03:30:16;;;;;;;3.88;2.03;;;7.40;93.40;;;;;;5102072;28;20044;-80
2021/01/12 03:32:43;;;;;;;3.55;1.90;;;7.40;93.40;;;;;;5101473;28;20044;-80
2021/01/12 03:35:10;;;;;;;3.60;1.80;;;7.40;93.40;;;;;;5104186;28;20040;-81
2021/01/12 03:37:36;;;;;;;4.32;2.47;;;7.40;93.40;;;;;;5084555;28;20056;-81
2021/01/12 03:40:05;;;;;;;3.30;2.20;;;7.50;93.50;;;;;;5104190;28;20468;-81
2021/01/12 03:42:31;;;;;;;4.28;2.10;;;7.40;93.40;;;;;;5105803;28;20108;-81
2021/01/12 03:44:56;;;;;;;4.05;2.30;;;7.40;93.50;;;;;;5108503;28;20490;-81
2021/01/12 03:47:22;;;;;;;4.32;2.03;;;7.40;93.50;;;;;;5112442;28;20024;-80
2021/01/12 03:49:48;;;;;;;2.88;1.70;;;7.40;93.50;;;;;;5113343;28;20491;-80
2021/01/12 03:52:14;;;;;;;3.20;2.15;;;7.40;93.50;;;;;;5108923;28;20040;-79
2021/01/12 03:54:40;;;;;;;3.67;2.15;;;7.40;93.50;;;;;;5110993;28;20048;-79
2021/01/12 03:57:05;;;;;;;3.80;2.35;;;7.40;93.50;;;;;;5093621;28;20067;-80
2021/01/12 03:59:31;;;;;;;3.50;2.10;;;7.50;93.50;;;;;;5110402;28;20036;-81
2021/01/12 04:01:57;;;;;;;3.95;2.30;;;7.40;93.50;;;;;;5114934;28;20047;-81
2021/01/12 04:04:23;;;;;;;2.80;1.58;;;7.50;93.50;;;;;;5080943;28;20028;-81
2021/01/12 04:06:48;;;;;;;2.22;1.38;;;7.50;93.50;;;;;;5116000;28;20091;-80
2021/01/12 04:09:14;;;;;;;3.67;1.60;;;7.40;93.50;;;;;;5115238;28;20051;-81
2021/01/12 04:11:40;;;;;;;3.45;1.48;;;7.40;93.60;;;;;;5113914;28;20048;-80
2021/01/12 04:14:07;;;;;;;2.65;1.60;;;7.40;93.60;;;;;;5114040;28;20042;-81
2021/01/12 04:16:33;;;;;;;2.38;1.40;;;7.40;93.60;;;;;;5113519;28;20024;-79
2021/01/12 04:18:59;;;;;;;3.08;1.50;;;7.50;93.60;;;;;;5114019;28;20085;-80
2021/01/12 04:21:25;;;;;;;2.78;1.52;;;7.50;93.60;;;;;;5079111;28;20016;-80
2021/01/12 04:23:51;;;;;;;2.70;1.30;;;7.50;93.60;;;;;;5112660;28;20036;-80
2021/01/12 04:26:16;;;;;;;2.42;1.48;;;7.50;93.60;;;;;;5111259;28;20055;-80
2021/01/12 04:28:42;;;;;;;4.40;1.40;;;7.50;93.60;;;;;;5093620;28;20039;-79
2021/01/12 04:31:08;;;;;;;2.50;1.52;;;7.50;93.60;;;;;;5113184;28;20032;-79
2021/01/12 04:33:34;;;;;;;1.95;1.40;;;7.60;93.60;;;;;;5093717;28;20087;-80
2021/01/12 04:36:00;;;;;;;2.10;1.45;;;7.50;93.60;;;;;;5108214;28;20051;-80
2021/01/12 04:38:25;;;;;;;3.20;1.83;;;7.50;93.60;;;;;;5096515;28;20032;-81
2021/01/12 04:40:51;;;;;;;3.30;1.73;;;7.60;93.60;;;;;;5109151;28;20089;-80
2021/01/12 04:43:17;;;;;;;2.28;1.48;;;7.60;93.60;;;;;;5114716;28;20108;-80
2021/01/12 04:45:43;;;;;;;3.08;1.70;;;7.60;93.60;;;;;;5094013;28;20494;-80
2021/01/12 04:48:09;;;;;;;2.50;1.45;;;7.60;93.60;;;;;;5112456;28;20032;-79
2021/01/12 04:50:34;;;;;;;1.52;1.15;;;7.60;93.60;;;;;;5114746;28;20059;-80
2021/01/12 04:53:00;;;;;;;2.45;1.30;;;7.60;93.60;;;;;;5114467;28;20108;-77
2021/01/12 04:55:26;;;;;;;1.73;1.17;;;7.60;93.60;;;;;;5111625;28;20024;-79
2021/01/12 04:57:52;;;;;;;1.13;1.00;;;7.80;93.60;;;;;;5114680;28;20047;-78
2021/01/12 05:00:24;;;;;;;1.10;1.00;;;7.60;93.60;;;;;;5096867;28;20028;-77
2021/01/12 05:03:04;;;;;;;;;;;7.60;93.60;;;;;;5113578;28;20134;-78
2021/01/12 05:05:32;;;;;;;3.85;1.40;;;7.60;93.60;;;;;;5108272;28;19979;-80
2021/01/12 05:08:13;;;;;;;2.25;1.20;;;7.70;93.60;;;;;;5107097;28;20050;-80
2021/01/12 05:10:40;;;;;;;1.52;0.90;;;7.70;93.60;;;;;;5111252;28;20036;-80
2021/01/12 05:13:09;;;;;;;2.03;1.05;;;7.70;93.50;;;;;;5074771;28;20044;-80
2021/01/12 05:15:38;;;;;;;1.27;0.98;;;7.70;93.60;;;;;;5113371;28;20048;-80
2021/01/12 05:18:07;;;;;;;1.38;1.00;;;7.70;93.60;;;;;;5094123;28;20024;-81
2021/01/12 05:20:41;;;;;;;2.42;0.98;;;7.70;93.60;;;;;;5115284;28;20020;-78
2021/01/12 05:23:09;;;;;;;1.02;0.80;;;7.70;93.60;;;;;;5097855;28;20059;-79
2021/01/12 05:25:39;;;;;;;1.30;1.00;;;7.70;93.60;;;;;;5112838;28;20040;-80
2021/01/12 05:28:07;;;;;;;1.15;0.90;;;7.70;93.70;;;;;;5112502;28;20039;-81
2021/01/12 05:30:33;;;;;;;2.47;1.25;;;7.70;93.70;;;;;;5112979;28;20087;-80
2021/01/12 05:33:03;;;;;;;1.63;1.17;;;7.70;93.60;;;;;;5114100;28;20036;-81
2021/01/12 05:35:30;;;;;;;1.77;1.10;;;7.80;93.70;;;;;;5097390;28;20099;-80
2021/01/12 05:38:06;;;;;;;1.25;0.77;;;7.70;93.60;;;;;;5116641;28;20048;-80
2021/01/12 05:40:36;;;;;;;1.17;0.93;;;7.70;93.60;;;;;;5099584;28;20062;-81
2021/01/12 05:43:12;;;;;;;2.25;1.20;;;7.70;93.70;;;;;;5095830;28;20052;-80
2021/01/12 05:45:40;;;;;;;1.20;1.10;;;7.70;93.70;;;;;;5115620;28;20031;-80
2021/01/12 05:48:07;;;;;;;2.53;1.00;;;7.80;93.70;;;;;;5115847;28;20055;-81
2021/01/12 05:50:33;;;;;;;1.55;0.90;;;7.80;93.70;;;;;;5107723;28;20027;-81
2021/01/12 05:53:08;;;;;;;2.70;0.80;;;7.70;93.70;;;;;;5108540;28;20040;-80
2021/01/12 05:55:39;;;;;;;1.58;0.98;;;7.70;93.70;;;;;;5090462;28;20496;-80
2021/01/12 05:58:20;;;;;;;1.58;1.08;;;7.70;93.80;;;;;;5087987;28;20017;-83
2021/01/12 06:00:47;;;;;;;1.35;0.88;;;7.70;93.70;;;;;;5110722;28;20055;-80
2021/01/12 06:03:15;;;;;;;2.05;0.77;;;7.80;93.70;;;;;;5088676;28;20505;-81
2021/01/12 06:05:44;;;;;;;1.58;0.90;;;7.80;93.70;;;;;;5105214;28;20051;-81
2021/01/12 06:08:13;;;;;;;1.08;0.90;;;7.80;93.70;;;;;;5081218;28;20032;-82
2021/01/12 06:10:43;;;;;;;1.45;0.82;;;7.70;93.70;;;;;;5099854;28;20047;-81
2021/01/12 06:13:13;;;;;;;2.15;0.90;;;7.80;93.80;;;;;;5069677;28;20038;-82
2021/01/12 06:15:41;;;;;;;1.13;0.70;;;7.80;93.80;;;;;;5111393;28;20050;-81
2021/01/12 06:18:18;;;;;;;2.15;0.85;;;7.80;93.80;;;;;;5076210;28;20040;-80
2021/01/12 06:21:09;;;;;;;0.63;0.60;;;7.90;93.80;;;;;;5093152;28;20050;-81
2021/01/12 06:23:49;;;;;;;1.83;0.80;;;7.80;93.80;;;;;;5108646;28;20017;-81
2021/01/12 06:26:16;;;;;;;1.85;0.90;;;7.70;93.80;;;;;;5112027;28;20043;-81
2021/01/12 06:28:43;;;;;;;1.02;0.60;;;7.80;93.80;;;;;;5094957;28;20067;-80
2021/01/12 06:31:10;;;;;;;0.90;0.80;;;7.80;93.80;;;;;;5078155;28;20044;-80
2021/01/12 06:33:36;;;;;;;1.60;0.90;;;7.80;93.90;;;;;;5080190;28;20139;-80
2021/01/12 06:36:03;;;;;;;2.72;1.00;;;7.80;93.90;;;;;;5096856;28;20059;-80
2021/01/12 06:38:34;;;;;;;1.02;0.90;;;7.80;93.90;;;;;;5094839;28;20052;-80
2021/01/12 06:41:04;;;;;;;0.95;0.85;;;7.70;93.90;;;;;;5096474;28;20040;-81
2021/01/12 06:43:29;;;;;;;1.48;0.82;;;7.80;93.90;;;;;;5095976;28;20482;-79
2021/01/12 06:45:56;;;;;;;2.65;1.08;;;7.80;93.90;;;;;;5093778;28;20032;-81
2021/01/12 06:48:22;;;;;;;0.82;0.55;;;7.70;93.80;;;;;;5094074;28;20050;-80
2021/01/12 06:50:48;;;;;;;1.17;0.93;;;7.80;93.90;;;;;;5094968;28;20103;-80
2021/01/12 06:53:15;;;;;;;1.85;0.82;;;7.80;93.90;;;;;;5077232;28;20389;-81
2021/01/12 06:55:41;;;;;;;0.70;0.60;;;7.80;93.90;;;;;;5095940;28;20036;-80
2021/01/12 06:58:08;;;;;;;1.05;0.70;;;7.80;93.90;;;;;;5078607;28;20040;-81
2021/01/12 07:00:36;;;;;;;1.92;0.40;;;7.80;93.90;;;;;;5076689;28;20048;-81
2021/01/12 07:03:03;;;;;;;0.50;0.50;;;7.80;93.90;;;;;;5076783;28;20063;-80
2021/01/12 07:05:45;;;;;;;0.50;0.50;;;7.70;93.90;;;;;;5093626;28;20346;-80
2021/01/12 07:08:12;;;;;;;0.65;0.50;;;7.70;93.80;;;;;;5093577;28;20109;-81
2021/01/12 07:10:46;;;;;;;1.15;0.45;;;7.70;93.80;;;;;;5106713;28;20024;-79
2021/01/12 07:13:13;;;;;;;0.93;0.60;;;7.70;93.90;;;;;;5194294;22;20048;-78
2021/01/12 07:15:43;;;;;;;0.57;0.43;;;7.70;93.90;;;;;;5239011;22;20069;-78
2021/01/12 07:18:10;;;;;;;0.60;0.50;;;7.70;93.90;;;;;;5065294;28;20036;-79
2021/01/12 07:20:38;;;;;;;0.20;0.20;;;7.80;93.90;;;;;;5052840;28;20065;-79
2021/01/12 07:23:07;;;;;;;0.85;0.50;;;7.60;93.80;;;;;;5057022;28;20091;-79
2021/01/12 07:25:37;;;;;;;0.55;0.47;;;7.60;93.90;;;;;;5054978;28;20029;-79
2021/01/12 07:28:07;;;;;;;0.65;0.50;;;7.60;93.90;;;;;;5191552;22;20077;-79
2021/01/12 07:30:35;;;;;;;1.63;0.60;;;7.60;93.90;;;;;;5036444;28;20069;-78
2021/01/12 07:33:04;;;;;;;1.00;0.60;;;7.50;93.90;;;;;;5038807;28;20076;-79
2021/01/12 07:35:31;;;;;;;0.45;0.45;;;7.60;93.90;;;;;;5038373;28;20046;-79
2021/01/12 07:38:16;;;;;;;0.77;0.40;;;7.50;93.90;;;;;;5032669;28;20100;-78
2021/01/12 07:40:42;;;;;;;0.73;0.50;;;7.50;93.90;;;;;;5008762;28;20030;-79
2021/01/12 07:43:14;;;;;;;1.67;0.45;;;7.50;93.90;;;;;;5012162;28;20126;-79
2021/01/12 07:45:40;;;;;;;1.38;0.68;;;7.50;93.90;;;;;;5010624;28;20034;-80
2021/01/12 07:48:07;;;;;;;0.63;0.30;;;7.50;93.90;;;;;;5010481;28;20064;-78
2021/01/12 07:50:32;;;;;;;0.35;0.30;;;7.40;93.80;;;;;;5011268;28;20088;-78
2021/01/12 07:52:58;;;;;;;0.95;0.40;;;7.50;93.90;;;;;;4995287;28;20484;-78
2021/01/12 07:55:26;;;;;;;1.52;0.60;;;7.50;93.90;;;;;;5013512;28;20046;-79
2021/01/12 07:57:53;;;;;;;0.30;0.22;;;7.50;93.90;;;;;;5015703;28;20088;-79
2021/01/12 08:00:19;;;;;;;0.68;0.35;;;7.40;93.90;;;;;;4993970;28;20174;-78
2021/01/12 08:02:50;;;;;;;0.77;0.40;;;7.50;93.90;;;;;;4994057;28;20093;-79
2021/01/12 08:05:18;;;;;;;3.13;0.70;;;7.40;93.90;;;;;;4992176;28;20058;-79
2021/01/12 08:07:45;;;;;;;1.85;0.47;;;7.40;93.90;;;;;;4993613;28;20042;-79
2021/01/12 08:10:11;;;;;;;1.05;0.60;;;7.40;93.90;;;;;;4993568;28;20366;-79
2021/01/12 08:12:37;;;;;;;0.50;0.45;;;7.40;93.90;;;;;;5014310;28;20053;-78
2021/01/12 08:15:14;;;;;;;0.55;0.47;;;7.30;93.90;;;;;;5015166;28;20041;-79
2021/01/12 08:17:48;;;;;;;1.52;0.50;;;7.40;93.90;;;;;;5017764;28;20052;-78
2021/01/12 08:20:16;;;;;;;1.90;0.50;;;7.50;94.00;;;;;;5015326;28;20069;-77
2021/01/12 08:22:57;;;;;;;2.22;0.50;;;7.40;93.90;;;;;;5014885;28;20404;-77
2021/01/12 08:25:24;;;;;;;1.80;0.40;;;7.40;93.90;;;;;;5010912;28;20104;-77
2021/01/12 08:27:52;;;;;;;0.73;0.60;;;7.30;93.90;;;;;;5014756;28;20041;-77
2021/01/12 08:30:21;;;;;;;0.55;0.30;;;7.30;93.90;;;;;;5013492;28;20400;-77
2021/01/12 08:33:01;;;;;;;1.15;0.63;;;7.30;93.90;;;;;;5014462;28;20056;-76
2021/01/12 08:35:29;;;;;;;1.08;0.60;;;7.30;94.00;;;;;;4982141;28;20046;-75
2021/01/12 08:37:58;;;;;;;0.77;0.60;;;7.30;93.90;;;;;;5015278;28;20045;-75
2021/01/12 08:40:28;;;;;;;1.23;0.73;;;7.30;93.90;;;;;;5017332;28;20045;-77
2021/01/12 08:42:54;;;;;;;0.85;0.52;;;7.30;93.90;;;;;;5018362;28;20403;-77
2021/01/12 08:45:20;;;;;;;1.00;0.60;;;7.30;93.90;;;;;;5023598;28;20081;-77
2021/01/12 08:47:46;;;;;;;1.13;0.60;;;7.30;93.90;;;;;;5006700;28;20041;-78
2021/01/12 08:50:13;;;;;;;0.60;0.55;;;7.30;93.90;;;;;;5042074;28;20057;-76
2021/01/12 08:52:44;;;;;;;1.25;0.80;;;7.20;94.00;;;;;;5025389;28;20104;-77
2021/01/12 08:55:20;;;;;;;1.00;0.90;;;7.30;94.00;;;;;;5010642;28;20042;-78
2021/01/12 08:57:58;;;;;;;0.75;0.50;;;7.10;93.90;;;;;;5024856;28;20080;-77
2021/01/12 09:00:28;;;;;;;0.73;0.55;;;7.10;94.20;;;;;;5025152;28;20137;-76
2021/01/12 09:02:55;;;;;;;1.37;0.60;;;7.10;93.90;;;;;;5025006;28;20046;-76
2021/01/12 09:05:22;;;;;;;1.02;0.50;;;7.00;93.90;;;;;;5022394;28;20111;-76
2021/01/12 09:07:59;;;;;;;0.68;0.40;;;6.90;93.90;;;;;;5028646;28;20036;-76
2021/01/12 09:10:27;;;;;;;2.00;0.88;;;7.00;94.00;;;;;;5017680;28;20058;-76
2021/01/12 09:12:54;;;;;;;2.60;0.60;;;7.00;94.10;;;;;;5029802;28;20050;-76
2021/01/12 09:15:37;;;;;;;0.55;0.50;;;6.90;94.10;;;;;;5014372;28;20052;-76
2021/01/12 09:18:05;;;;;;;1.45;0.80;;;6.90;94.00;;;;;;5014029;28;20042;-75
2021/01/12 09:20:31;;;;;;;0.70;0.60;;;6.90;94.00;;;;;;5014739;28;20065;-74
2021/01/12 09:23:10;;;;;;;1.08;0.63;;;6.90;94.00;;;;;;5014269;28;20042;-74
2021/01/12 09:25:39;;;;;;;1.75;0.68;;;6.90;94.00;;;;;;5017195;28;20044;-75
2021/01/12 09:28:09;;;;;;;0.65;0.40;;;6.90;94.00;;;;;;5016842;28;20065;-77
2021/01/12 09:30:34;;;;;;;0.30;0.30;;;6.80;93.90;;;;;;5030240;28;20042;-77
2021/01/12 09:33:00;;;;;;;0.60;0.47;;;6.90;93.90;;;;;;5028374;28;20061;-76
2021/01/12 09:35:26;;;;;;;0.57;0.40;;;6.80;93.90;;;;;;5015637;28;20384;-77
2021/01/12 09:37:58;;;;;;;2.00;0.40;;;6.80;93.90;;;;;;5015455;28;20045;-78
2021/01/12 09:40:23;;;;;;;0.98;0.40;;;6.70;93.90;;;;;;4995306;28;20050;-76
2021/01/12 09:42:49;;;;;;;0.30;0.30;;;6.70;93.80;;;;;;5010503;28;20468;-77
2021/01/12 09:45:15;;;;;;;0.50;0.40;;;6.70;93.90;;;;;;5009429;28;20060;-78
2021/01/12 09:47:41;;;;;;;0.55;0.47;;;6.70;93.90;;;;;;5025849;28;20064;-78
2021/01/12 09:50:07;;;;;;;0.75;0.45;;;6.70;93.90;;;;;;5028580;28;20049;-77
2021/01/12 09:52:33;;;;;;;1.35;0.32;;;6.60;93.80;;;;;;5030235;28;20112;-77
2021/01/12 09:54:59;;;;;;;1.08;0.50;;;6.60;93.80;;;;;;5026400;28;20484;-77
2021/01/12 09:57:25;;;;;;;2.08;0.55;;;6.60;93.90;;;;;;5025591;28;20050;-76
2021/01/12 09:59:50;;;;;;;1.05;0.32;;;6.60;93.90;;;;;;5021826;28;20045;-77
2021/01/12 10:02:16;;;;;;;0.93;0.40;;;6.60;93.90;;;;;;4995078;28;20514;-76
2021/01/12 10:04:43;;;;;;;0.55;0.40;;;6.70;93.90;;;;;;5027299;28;20038;-76
2021/01/12 10:07:09;;;;;;;0.32;0.30;;;6.60;93.80;;;;;;5013198;28;20042;-75
2021/01/12 10:09:37;;;;;;;0.28;0.28;;;6.60;93.80;;;;;;5014593;28;20057;-75
2021/01/12 10:12:04;;;;;;;0.30;0.30;;;6.60;93.80;;;;;;5013340;28;20053;-74
2021/01/12 10:14:29;;;;;;;1.95;0.60;;;6.60;93.80;;;;;;5027486;28;20042;-75
2021/01/12 10:16:55;;;;;;;0.57;0.32;;;6.60;93.80;;;;;;5016716;28;20044;-77
2021/01/12 10:19:21;;;;;;;1.42;0.40;;;6.60;93.70;;;;;;5015013;28;20038;-75
2021/01/12 10:21:49;;;;;;;0.50;0.28;;;6.60;93.70;;;;;;5031396;28;20042;-76
2021/01/12 10:24:14;;;;;;;0.43;0.35;;;6.60;93.70;;;;;;5023096;28;20045;-77
2021/01/12 10:26:43;;;;;;;1.88;0.45;;;6.60;93.70;;;;;;5016348;28;20667;-78
2021/01/12 10:29:10;;;;;;;0.60;0.40;;;6.60;93.70;;;;;;5001374;28;20042;-76
2021/01/12 10:31:43;;;;;;;1.02;0.47;;;6.60;93.70;;;;;;5028310;28;20428;-77
2021/01/12 10:34:08;;;;;;;1.13;0.50;;;6.70;93.70;;;;;;5027706;28;20038;-77
2021/01/12 10:36:34;;;;;;;0.88;0.30;;;6.70;93.70;;;;;;5044763;28;20148;-77
2021/01/12 10:39:00;;;;;;;0.50;0.40;;;6.80;93.70;;;;;;5030368;28;20041;-77
2021/01/12 10:41:25;;;;;;;1.60;0.55;;;6.80;93.50;;;;;;5030115;28;20066;-77
2021/01/12 10:43:53;;;;;;;1.17;0.50;;;6.80;93.40;;;;;;5032375;28;20042;-77
2021/01/12 10:46:18;;;;;;;0.73;0.38;;;6.70;93.40;;;;;;5032601;28;20046;-79
2021/01/12 10:48:44;;;;;;;2.75;0.30;;;6.60;93.50;;;;;;5026364;28;20515;-77
2021/01/12 10:51:10;;;;;;;0.70;0.30;;;6.50;93.50;;;;;;5008626;28;20127;-77
2021/01/12 10:53:35;;;;;;;0.65;0.10;;;6.40;93.60;;;;;;5013239;28;20052;-77
2021/01/12 10:56:02;;;;;;;0.77;0.20;;;6.40;93.60;;;;;;5028419;28;20046;-77
2021/01/12 10:58:28;;;;;;;0.50;0.28;;;6.40;93.70;;;;;;5012199;28;20113;-76
2021/01/12 11:00:54;;;;;;;0.90;0.10;;;6.30;93.60;;;;;;5016691;28;20087;-76
2021/01/12 11:03:20;;;;;;;0.32;0.20;;;6.20;93.70;;;;;;5011006;28;20042;-77
2021/01/12 11:05:52;;;;;;;0.60;0.25;;;6.20;93.70;;;;;;5014606;28;20044;-76
2021/01/12 11:08:18;;;;;;;0.93;0.20;;;6.20;93.70;;;;;;5018009;28;20045;-76
2021/01/12 11:10:45;;;;;;;0.10;0.10;;;6.30;93.70;;;;;;5017153;28;20038;-77
2021/01/12 11:13:11;;;;;;;0.52;0.17;;;6.30;93.70;;;;;;5011647;28;20030;-77
2021/01/12 11:15:39;;;;;;;1.25;0.20;;;6.20;93.60;;;;;;5012562;28;20045;-74
2021/01/12 11:18:05;;;;;;;0.65;0.22;;;6.40;93.60;;;;;;5012178;28;20123;-74
2021/01/12 11:20:32;;;;;;;0.20;0.20;;;6.20;93.60;;;;;;5024357;28;20038;-75
2021/01/12 11:22:58;;;;;;;1.08;0.20;;;6.20;93.60;;;;;;5027464;28;20369;-76
2021/01/12 11:25:24;;;;;;;0.10;0.00;;;6.20;93.60;;;;;;5010616;28;20180;-75
2021/01/12 11:27:49;;;;;;;0.40;0.20;;;6.40;93.60;;;;;;5013229;28;20225;-79
2021/01/12 11:30:16;;;;;;;0.63;0.20;;;6.40;93.50;;;;;;5016562;28;20181;-78
2021/01/12 11:32:44;;;;;;;0.20;0.20;;;6.30;93.40;;;;;;5012784;28;20045;-76
2021/01/12 11:35:10;;;;;;;0.57;0.20;;;6.40;93.40;;;;;;5012134;28;20526;-75
2021/01/12 11:37:36;;;;;;;0.20;0.17;;;6.30;93.30;;;;;;5007808;28;20052;-75
2021/01/12 11:40:03;;;;;;;2.55;0.43;;;6.30;93.40;;;;;;5008705;28;20038;-76
2021/01/12 11:42:28;;;;;;;0.55;0.30;;;6.30;93.30;;;;;;5027039;28;20072;-76
2021/01/12 11:44:54;;;;;;;0.85;0.30;;;6.40;93.30;;;;;;5012352;28;20065;-75
2021/01/12 11:47:20;;;;;;;0.20;0.10;;;6.40;93.20;;;;;;5012494;28;20435;-76
2021/01/12 11:49:47;;;;;;;0.93;0.22;;;6.40;93.20;;;;;;5012423;28;20044;-76
2021/01/12 11:52:15;;;;;;;1.23;0.30;;;6.40;93.20;;;;;;5012784;28;20045;-76
2021/01/12 11:54:40;;;;;;;4.90;0.30;;;6.40;93.10;;;;;;5009302;28;20042;-76
2021/01/12 11:57:09;;;;;;;2.65;0.32;;;6.50;93.10;;;;;;5012109;28;20141;-76
2021/01/12 11:59:35;;;;;;;0.52;0.20;;;6.50;92.90;;;;;;5012528;28;20077;-76
2021/01/12 12:02:01;;;;;;;0.15;0.15;;;6.50;93.00;;;;;;5012327;28;20092;-76
2021/01/12 12:04:27;;;;;;;1.20;0.28;;;6.50;92.90;;;;;;5012653;28;20088;-75
2021/01/12 12:06:58;;;;;;;0.50;0.20;;;6.60;92.80;;;;;;5025985;28;20052;-76
2021/01/12 12:09:25;;;;;;;0.38;0.10;;;6.60;92.80;;;;;;5014655;28;20119;-76
2021/01/12 12:11:50;;;;;;;0.55;0.20;;;6.70;92.80;;;;;;5036411;28;20042;-76
2021/01/12 12:14:17;;;;;;;0.20;0.20;;;6.70;92.70;;;;;;5022449;28;20105;-74
2021/01/12 12:16:44;;;;;;;0.60;0.17;;;6.70;92.60;;;;;;5016545;28;20092;-74
2021/01/12 12:19:11;;;;;;;0.10;0.10;;;6.60;92.50;;;;;;5015277;28;20496;-73
2021/01/12 12:21:51;;;;;;;0.35;0.30;;;6.60;92.50;;;;;;5014927;28;20087;-74
2021/01/12 12:24:18;;;;;;;0.28;0.20;;;6.60;92.50;;;;;;5015108;28;20038;-75
2021/01/12 12:26:45;;;;;;;2.55;0.38;;;6.60;92.80;;;;;;5013011;28;20042;-75
2021/01/12 12:29:11;;;;;;;0.47;0.20;;;6.70;92.40;;;;;;5015278;28;20050;-75
2021/01/12 12:31:37;;;;;;;0.70;0.20;;;6.70;92.20;;;;;;5014901;28;20076;-75
2021/01/12 12:34:03;;;;;;;1.85;0.47;;;6.70;92.30;;;;;;5013699;28;20046;-75
2021/01/12 12:36:29;;;;;;;0.30;0.20;;;6.70;92.30;;;;;;5029041;28;20041;-75
2021/01/12 12:38:55;;;;;;;2.22;0.60;;;6.60;92.20;;;;;;5012703;28;20472;-75
2021/01/12 12:41:21;;;;;;;1.50;0.30;;;6.70;92.10;;;;;;5020794;28;20088;-75
2021/01/12 12:43:47;;;;;;;0.98;0.38;;;6.60;92.10;;;;;;5014546;28;20424;-76
2021/01/12 12:46:16;;;;;;;1.67;0.50;;;6.50;92.10;;;;;;5014874;28;20092;-77
2021/01/12 12:48:43;;;;;;;0.65;0.20;;;6.50;92.00;;;;;;5015099;28;20088;-77
2021/01/12 12:51:10;;;;;;;0.10;0.10;;;6.50;92.10;;;;;;5026833;28;20066;-78
2021/01/12 12:53:38;;;;;;;1.48;0.43;;;6.60;92.10;;;;;;5014334;28;20064;-77
2021/01/12 12:56:08;;;;;;;0.80;0.20;;;6.70;92.00;;;;;;5016090;28;20073;-75
2021/01/12 12:58:34;;;;;;;0.40;0.30;;;6.70;91.80;;;;;;5024961;28;20097;-77
2021/01/12 13:01:00;;;;;;;0.50;0.30;;;6.70;91.70;;;;;;5016455;28;20045;-78
2021/01/12 13:03:26;;;;;;;2.20;0.30;;;6.90;91.60;;;;;;4993737;28;20037;-79